sensor_id;sensor_type;location;lat;lon;timestamp;P1;durP1;ratioP1;P2;durP2;ratioP2
17773;SDS011;9011;33.236;-97.118;2022-12-07T00:01:27;10.60;;;2.47;;
17773;SDS011;9011;33.236;-97.118;2022-12-07T00:03:59;2.33;;;2.13;;
17773;SDS011;9011;33.236;-97.118;2022-12-07T00:06:31;4.18;;;2.50;;
17773;SDS011;9011;33.236;-97.118;2022-12-07T00:09:00;2.35;;;2.15;;
17773;SDS011;9011;33.236;-97.118;2022-12-07T00:11:30;3.35;;;2.60;;
17773;SDS011;9011;33.236;-97.118;2022-12-07T00:14:00;3.03;;;2.40;;
17773;SDS011;9011;33.236;-97.118;2022-12-07T00:16:31;2.35;;;2.05;;
17773;SDS011;9011;33.236;-97.118;2022-12-07T00:19:02;2.78;;;2.10;;
17773;SDS011;9011;33.236;-97.118;2022-12-07T00:21:32;2.58;;;2.13;;
17773;SDS011;9011;33.236;-97.118;2022-12-07T00:24:01;4.63;;;2.40;;
17773;SDS011;9011;33.236;-97.118;2022-12-07T00:26:31;2.40;;;2.08;;
17773;SDS011;9011;33.236;-97.118;2022-12-07T00:29:02;3.03;;;2.47;;
17773;SDS011;9011;33.236;-97.118;2022-12-07T00:31:31;4.65;;;3.20;;
17773;SDS011;9011;33.236;-97.118;2022-12-07T00:34:05;4.28;;;3.13;;
17773;SDS011;9011;33.236;-97.118;2022-12-07T00:36:34;3.55;;;2.60;;
17773;SDS011;9011;33.236;-97.118;2022-12-07T00:39:03;5.82;;;2.47;;
17773;SDS011;9011;33.236;-97.118;2022-12-07T00:41:31;3.00;;;2.47;;
17773;SDS011;9011;33.236;-97.118;2022-12-07T00:44:00;4.50;;;2.00;;
17773;SDS011;9011;33.236;-97.118;2022-12-07T00:46:29;3.00;;;1.80;;
17773;SDS011;9011;33.236;-97.118;2022-12-07T00:48:57;3.55;;;2.05;;
17773;SDS011;9011;33.236;-97.118;2022-12-07T00:51:27;3.63;;;2.17;;
17773;SDS011;9011;33.236;-97.118;2022-12-07T00:53:55;3.10;;;2.35;;
17773;SDS011;9011;33.236;-97.118;2022-12-07T00:56:24;3.38;;;2.22;;
17773;SDS011;9011;33.236;-97.118;2022-12-07T00:58:54;5.43;;;2.47;;
17773;SDS011;9011;33.236;-97.118;2022-12-07T01:01:25;3.72;;;2.60;;
17773;SDS011;9011;33.236;-97.118;2022-12-07T01:03:55;3.13;;;2.38;;
17773;SDS011;9011;33.236;-97.118;2022-12-07T01:06:24;2.65;;;2.45;;
17773;SDS011;9011;33.236;-97.118;2022-12-07T01:08:54;4.20;;;2.40;;
17773;SDS011;9011;33.236;-97.118;2022-12-07T01:11:23;3.00;;;2.70;;
17773;SDS011;9011;33.236;-97.118;2022-12-07T01:13:53;6.03;;;2.70;;
17773;SDS011;9011;33.236;-97.118;2022-12-07T01:16:23;3.95;;;2.70;;
17773;SDS011;9011;33.236;-97.118;2022-12-07T01:18:53;3.28;;;2.40;;
17773;SDS011;9011;33.236;-97.118;2022-12-07T01:21:23;2.55;;;2.35;;
17773;SDS011;9011;33.236;-97.118;2022-12-07T01:23:54;3.33;;;3.03;;
17773;SDS011;9011;33.236;-97.118;2022-12-07T01:26:24;3.15;;;2.47;;
17773;SDS011;9011;33.236;-97.118;2022-12-07T01:28:53;4.18;;;3.08;;
17773;SDS011;9011;33.236;-97.118;2022-12-07T01:31:25;3.72;;;2.80;;
17773;SDS011;9011;33.236;-97.118;2022-12-07T01:33:55;3.92;;;2.97;;
17773;SDS011;9011;33.236;-97.118;2022-12-07T01:36:24;3.97;;;3.33;;
17773;SDS011;9011;33.236;-97.118;2022-12-07T01:38:56;3.63;;;2.78;;
17773;SDS011;9011;33.236;-97.118;2022-12-07T01:41:27;4.95;;;3.08;;
17773;SDS011;9011;33.236;-97.118;2022-12-07T01:44:17;3.40;;;2.60;;
17773;SDS011;9011;33.236;-97.118;2022-12-07T01:46:47;2.92;;;2.70;;
17773;SDS011;9011;33.236;-97.118;2022-12-07T01:49:18;3.38;;;2.60;;
17773;SDS011;9011;33.236;-97.118;2022-12-07T01:51:52;2.85;;;2.55;;
17773;SDS011;9011;33.236;-97.118;2022-12-07T01:54:27;3.20;;;3.00;;
17773;SDS011;9011;33.236;-97.118;2022-12-07T01:56:56;4.72;;;2.80;;
17773;SDS011;9011;33.236;-97.118;2022-12-07T01:59:25;3.63;;;3.25;;
17773;SDS011;9011;33.236;-97.118;2022-12-07T02:01:54;3.22;;;2.92;;
17773;SDS011;9011;33.236;-97.118;2022-12-07T02:04:23;4.30;;;3.00;;
17773;SDS011;9011;33.236;-97.118;2022-12-07T02:06:51;3.60;;;3.08;;
17773;SDS011;9011;33.236;-97.118;2022-12-07T02:09:21;3.30;;;2.65;;
17773;SDS011;9011;33.236;-97.118;2022-12-07T02:11:51;5.03;;;3.20;;
17773;SDS011;9011;33.236;-97.118;2022-12-07T02:14:21;5.03;;;3.30;;
17773;SDS011;9011;33.236;-97.118;2022-12-07T02:16:56;5.50;;;3.40;;
17773;SDS011;9011;33.236;-97.118;2022-12-07T02:19:39;3.70;;;3.40;;
17773;SDS011;9011;33.236;-97.118;2022-12-07T02:22:39;4.25;;;3.38;;
17773;SDS011;9011;33.236;-97.118;2022-12-07T02:25:28;4.28;;;3.88;;
17773;SDS011;9011;33.236;-97.118;2022-12-07T02:28:16;5.05;;;3.55;;
17773;SDS011;9011;33.236;-97.118;2022-12-07T02:30:54;5.15;;;3.35;;
17773;SDS011;9011;33.236;-97.118;2022-12-07T02:33:27;4.00;;;3.53;;
17773;SDS011;9011;33.236;-97.118;2022-12-07T02:35:59;4.43;;;3.55;;
17773;SDS011;9011;33.236;-97.118;2022-12-07T02:38:31;5.20;;;3.30;;
17773;SDS011;9011;33.236;-97.118;2022-12-07T02:41:06;6.88;;;3.60;;
17773;SDS011;9011;33.236;-97.118;2022-12-07T02:43:38;4.05;;;3.60;;
17773;SDS011;9011;33.236;-97.118;2022-12-07T02:46:13;4.25;;;3.53;;
17773;SDS011;9011;33.236;-97.118;2022-12-07T02:48:44;4.22;;;3.67;;
17773;SDS011;9011;33.236;-97.118;2022-12-07T02:51:18;5.07;;;3.85;;
17773;SDS011;9011;33.236;-97.118;2022-12-07T02:53:49;5.60;;;3.65;;
17773;SDS011;9011;33.236;-97.118;2022-12-07T02:56:22;3.97;;;3.45;;
17773;SDS011;9011;33.236;-97.118;2022-12-07T02:59:02;5.28;;;3.70;;
17773;SDS011;9011;33.236;-97.118;2022-12-07T03:01:50;5.72;;;3.58;;
17773;SDS011;9011;33.236;-97.118;2022-12-07T03:04:31;5.55;;;3.55;;
17773;SDS011;9011;33.236;-97.118;2022-12-07T03:07:13;4.53;;;3.50;;
17773;SDS011;9011;33.236;-97.118;2022-12-07T03:09:57;5.90;;;4.18;;
17773;SDS011;9011;33.236;-97.118;2022-12-07T03:12:44;6.55;;;5.00;;
17773;SDS011;9011;33.236;-97.118;2022-12-07T03:15:51;6.40;;;5.20;;
17773;SDS011;9011;33.236;-97.118;2022-12-07T03:18:30;7.60;;;6.10;;
17773;SDS011;9011;33.236;-97.118;2022-12-07T03:21:20;7.63;;;6.22;;
17773;SDS011;9011;33.236;-97.118;2022-12-07T03:24:23;7.40;;;6.38;;
17773;SDS011;9011;33.236;-97.118;2022-12-07T03:27:20;8.52;;;6.35;;
17773;SDS011;9011;33.236;-97.118;2022-12-07T03:29:51;8.68;;;6.75;;
17773;SDS011;9011;33.236;-97.118;2022-12-07T03:32:24;8.23;;;7.18;;
17773;SDS011;9011;33.236;-97.118;2022-12-07T03:35:16;8.55;;;6.57;;
17773;SDS011;9011;33.236;-97.118;2022-12-07T03:37:51;7.10;;;6.40;;
17773;SDS011;9011;33.236;-97.118;2022-12-07T03:40:29;10.48;;;7.35;;
17773;SDS011;9011;33.236;-97.118;2022-12-07T03:43:01;8.65;;;7.28;;
17773;SDS011;9011;33.236;-97.118;2022-12-07T03:45:31;10.15;;;7.97;;
17773;SDS011;9011;33.236;-97.118;2022-12-07T03:48:07;8.48;;;7.38;;
17773;SDS011;9011;33.236;-97.118;2022-12-07T03:50:43;9.55;;;8.13;;
17773;SDS011;9011;33.236;-97.118;2022-12-07T03:53:17;9.38;;;7.82;;
17773;SDS011;9011;33.236;-97.118;2022-12-07T03:55:49;9.63;;;8.05;;
17773;SDS011;9011;33.236;-97.118;2022-12-07T03:58:20;10.27;;;8.70;;
17773;SDS011;9011;33.236;-97.118;2022-12-07T04:00:50;10.73;;;8.82;;
17773;SDS011;9011;33.236;-97.118;2022-12-07T04:03:19;8.85;;;7.88;;
17773;SDS011;9011;33.236;-97.118;2022-12-07T04:05:49;9.73;;;8.57;;
17773;SDS011;9011;33.236;-97.118;2022-12-07T04:08:18;10.00;;;8.15;;
17773;SDS011;9011;33.236;-97.118;2022-12-07T04:10:46;9.52;;;8.15;;
17773;SDS011;9011;33.236;-97.118;2022-12-07T04:13:15;8.07;;;7.28;;
17773;SDS011;9011;33.236;-97.118;2022-12-07T04:15:43;9.77;;;7.78;;
17773;SDS011;9011;33.236;-97.118;2022-12-07T04:18:11;8.30;;;7.50;;
17773;SDS011;9011;33.236;-97.118;2022-12-07T04:20:40;8.77;;;7.50;;
17773;SDS011;9011;33.236;-97.118;2022-12-07T04:23:10;8.65;;;7.05;;
17773;SDS011;9011;33.236;-97.118;2022-12-07T04:25:38;8.45;;;7.40;;
17773;SDS011;9011;33.236;-97.118;2022-12-07T04:28:07;10.95;;;7.63;;
17773;SDS011;9011;33.236;-97.118;2022-12-07T04:30:35;8.30;;;7.50;;
17773;SDS011;9011;33.236;-97.118;2022-12-07T04:33:03;8.70;;;7.80;;
17773;SDS011;9011;33.236;-97.118;2022-12-07T04:35:32;8.38;;;7.43;;
17773;SDS011;9011;33.236;-97.118;2022-12-07T04:38:01;7.47;;;6.70;;
17773;SDS011;9011;33.236;-97.118;2022-12-07T04:40:31;8.10;;;7.25;;
17773;SDS011;9011;33.236;-97.118;2022-12-07T04:42:59;7.13;;;6.43;;
17773;SDS011;9011;33.236;-97.118;2022-12-07T04:45:27;7.10;;;6.40;;
17773;SDS011;9011;33.236;-97.118;2022-12-07T04:47:56;8.35;;;7.55;;
17773;SDS011;9011;33.236;-97.118;2022-12-07T04:50:24;7.45;;;6.65;;
17773;SDS011;9011;33.236;-97.118;2022-12-07T04:52:52;7.93;;;6.70;;
17773;SDS011;9011;33.236;-97.118;2022-12-07T04:55:21;8.38;;;6.55;;
17773;SDS011;9011;33.236;-97.118;2022-12-07T04:57:51;8.68;;;6.75;;
17773;SDS011;9011;33.236;-97.118;2022-12-07T05:00:19;7.60;;;6.80;;
17773;SDS011;9011;33.236;-97.118;2022-12-07T05:02:48;7.93;;;6.78;;
17773;SDS011;9011;33.236;-97.118;2022-12-07T05:05:16;9.35;;;7.03;;
17773;SDS011;9011;33.236;-97.118;2022-12-07T05:07:44;8.60;;;7.28;;
17773;SDS011;9011;33.236;-97.118;2022-12-07T05:10:13;8.27;;;6.57;;
17773;SDS011;9011;33.236;-97.118;2022-12-07T05:12:41;8.85;;;6.43;;
17773;SDS011;9011;33.236;-97.118;2022-12-07T05:15:12;7.90;;;6.90;;
17773;SDS011;9011;33.236;-97.118;2022-12-07T05:17:41;7.03;;;6.32;;
17773;SDS011;9011;33.236;-97.118;2022-12-07T05:20:10;8.15;;;6.85;;
17773;SDS011;9011;33.236;-97.118;2022-12-07T05:22:39;7.68;;;6.07;;
17773;SDS011;9011;33.236;-97.118;2022-12-07T05:25:07;9.55;;;7.20;;
17773;SDS011;9011;33.236;-97.118;2022-12-07T05:27:36;7.65;;;6.65;;
17773;SDS011;9011;33.236;-97.118;2022-12-07T05:30:05;7.78;;;6.95;;
17773;SDS011;9011;33.236;-97.118;2022-12-07T05:32:51;9.05;;;6.80;;
17773;SDS011;9011;33.236;-97.118;2022-12-07T05:38:59;9.20;;;6.93;;
17773;SDS011;9011;33.236;-97.118;2022-12-07T05:41:42;10.63;;;7.30;;
17773;SDS011;9011;33.236;-97.118;2022-12-07T05:44:27;8.38;;;7.28;;
17773;SDS011;9011;33.236;-97.118;2022-12-07T05:46:55;8.77;;;7.70;;
17773;SDS011;9011;33.236;-97.118;2022-12-07T05:49:26;8.95;;;7.63;;
17773;SDS011;9011;33.236;-97.118;2022-12-07T05:51:55;9.27;;;7.10;;
17773;SDS011;9011;33.236;-97.118;2022-12-07T05:54:23;7.47;;;6.78;;
17773;SDS011;9011;33.236;-97.118;2022-12-07T05:56:52;8.32;;;6.82;;
17773;SDS011;9011;33.236;-97.118;2022-12-07T05:59:21;7.25;;;6.55;;
17773;SDS011;9011;33.236;-97.118;2022-12-07T06:01:50;9.55;;;7.68;;
17773;SDS011;9011;33.236;-97.118;2022-12-07T06:04:20;8.48;;;7.68;;
17773;SDS011;9011;33.236;-97.118;2022-12-07T06:06:55;8.75;;;7.07;;
17773;SDS011;9011;33.236;-97.118;2022-12-07T06:09:24;8.65;;;7.32;;
17773;SDS011;9011;33.236;-97.118;2022-12-07T06:11:54;8.55;;;7.60;;
17773;SDS011;9011;33.236;-97.118;2022-12-07T06:14:40;8.45;;;7.57;;
17773;SDS011;9011;33.236;-97.118;2022-12-07T06:17:11;8.27;;;6.90;;
17773;SDS011;9011;33.236;-97.118;2022-12-07T06:19:39;7.95;;;6.75;;
17773;SDS011;9011;33.236;-97.118;2022-12-07T06:22:10;8.73;;;7.63;;
17773;SDS011;9011;33.236;-97.118;2022-12-07T06:24:41;9.23;;;7.03;;
17773;SDS011;9011;33.236;-97.118;2022-12-07T06:27:10;9.52;;;6.63;;
17773;SDS011;9011;33.236;-97.118;2022-12-07T06:29:39;8.07;;;7.28;;
17773;SDS011;9011;33.236;-97.118;2022-12-07T06:32:07;8.48;;;7.63;;
17773;SDS011;9011;33.236;-97.118;2022-12-07T06:34:36;8.20;;;7.13;;
17773;SDS011;9011;33.236;-97.118;2022-12-07T06:37:04;7.50;;;6.45;;
17773;SDS011;9011;33.236;-97.118;2022-12-07T06:39:35;8.25;;;7.07;;
17773;SDS011;9011;33.236;-97.118;2022-12-07T06:42:04;7.85;;;7.05;;
17773;SDS011;9011;33.236;-97.118;2022-12-07T06:44:32;8.15;;;7.25;;
17773;SDS011;9011;33.236;-97.118;2022-12-07T06:47:01;7.90;;;7.00;;
17773;SDS011;9011;33.236;-97.118;2022-12-07T06:49:31;9.07;;;6.35;;
17773;SDS011;9011;33.236;-97.118;2022-12-07T06:51:59;8.13;;;6.97;;
17773;SDS011;9011;33.236;-97.118;2022-12-07T06:54:28;7.63;;;6.65;;
17773;SDS011;9011;33.236;-97.118;2022-12-07T06:56:58;8.77;;;6.93;;
17773;SDS011;9011;33.236;-97.118;2022-12-07T06:59:26;8.93;;;6.50;;
17773;SDS011;9011;33.236;-97.118;2022-12-07T07:01:54;7.15;;;6.25;;
17773;SDS011;9011;33.236;-97.118;2022-12-07T07:04:22;7.53;;;6.72;;
17773;SDS011;9011;33.236;-97.118;2022-12-07T07:06:52;7.40;;;6.25;;
17773;SDS011;9011;33.236;-97.118;2022-12-07T07:09:21;7.72;;;6.68;;
17773;SDS011;9011;33.236;-97.118;2022-12-07T07:11:49;7.90;;;6.70;;
17773;SDS011;9011;33.236;-97.118;2022-12-07T07:14:19;7.28;;;6.53;;
17773;SDS011;9011;33.236;-97.118;2022-12-07T07:16:48;7.68;;;6.70;;
17773;SDS011;9011;33.236;-97.118;2022-12-07T07:19:16;7.60;;;6.85;;
17773;SDS011;9011;33.236;-97.118;2022-12-07T07:21:44;7.97;;;7.18;;
17773;SDS011;9011;33.236;-97.118;2022-12-07T07:24:13;6.78;;;6.18;;
17773;SDS011;9011;33.236;-97.118;2022-12-07T07:26:42;7.15;;;6.30;;
17773;SDS011;9011;33.236;-97.118;2022-12-07T07:29:10;8.70;;;7.25;;
17773;SDS011;9011;33.236;-97.118;2022-12-07T07:31:41;6.38;;;5.75;;
17773;SDS011;9011;33.236;-97.118;2022-12-07T07:34:09;8.55;;;7.07;;
17773;SDS011;9011;33.236;-97.118;2022-12-07T07:36:37;8.10;;;7.05;;
17773;SDS011;9011;33.236;-97.118;2022-12-07T07:39:09;7.72;;;6.22;;
17773;SDS011;9011;33.236;-97.118;2022-12-07T07:41:38;6.22;;;5.72;;
17773;SDS011;9011;33.236;-97.118;2022-12-07T07:44:07;7.10;;;6.40;;
17773;SDS011;9011;33.236;-97.118;2022-12-07T07:46:36;10.43;;;7.07;;
17773;SDS011;9011;33.236;-97.118;2022-12-07T07:49:06;8.75;;;6.75;;
17773;SDS011;9011;33.236;-97.118;2022-12-07T07:51:36;7.03;;;6.32;;
17773;SDS011;9011;33.236;-97.118;2022-12-07T07:54:04;7.20;;;6.47;;
17773;SDS011;9011;33.236;-97.118;2022-12-07T07:56:35;6.80;;;6.10;;
17773;SDS011;9011;33.236;-97.118;2022-12-07T07:59:03;6.63;;;5.97;;
17773;SDS011;9011;33.236;-97.118;2022-12-07T08:01:33;7.15;;;6.22;;
17773;SDS011;9011;33.236;-97.118;2022-12-07T08:04:02;7.00;;;5.97;;
17773;SDS011;9011;33.236;-97.118;2022-12-07T08:06:31;6.82;;;5.78;;
17773;SDS011;9011;33.236;-97.118;2022-12-07T08:09:00;7.32;;;6.13;;
17773;SDS011;9011;33.236;-97.118;2022-12-07T08:11:30;7.38;;;6.25;;
17773;SDS011;9011;33.236;-97.118;2022-12-07T08:13:59;5.63;;;5.13;;
17773;SDS011;9011;33.236;-97.118;2022-12-07T08:16:27;6.50;;;5.90;;
17773;SDS011;9011;33.236;-97.118;2022-12-07T08:18:56;7.13;;;6.40;;
17773;SDS011;9011;33.236;-97.118;2022-12-07T08:21:24;6.72;;;5.88;;
17773;SDS011;9011;33.236;-97.118;2022-12-07T08:23:54;6.38;;;5.60;;
17773;SDS011;9011;33.236;-97.118;2022-12-07T08:26:24;5.93;;;5.35;;
17773;SDS011;9011;33.236;-97.118;2022-12-07T08:28:53;6.28;;;5.68;;
17773;SDS011;9011;33.236;-97.118;2022-12-07T08:31:22;5.93;;;5.10;;
17773;SDS011;9011;33.236;-97.118;2022-12-07T08:33:51;6.95;;;5.75;;
17773;SDS011;9011;33.236;-97.118;2022-12-07T08:36:19;6.40;;;5.80;;
17773;SDS011;9011;33.236;-97.118;2022-12-07T08:38:48;6.22;;;5.63;;
17773;SDS011;9011;33.236;-97.118;2022-12-07T08:41:19;6.18;;;5.57;;
17773;SDS011;9011;33.236;-97.118;2022-12-07T08:43:47;6.18;;;5.53;;
17773;SDS011;9011;33.236;-97.118;2022-12-07T08:46:17;6.38;;;5.68;;
17773;SDS011;9011;33.236;-97.118;2022-12-07T08:48:48;6.60;;;5.70;;
17773;SDS011;9011;33.236;-97.118;2022-12-07T08:51:20;6.50;;;5.90;;
17773;SDS011;9011;33.236;-97.118;2022-12-07T08:53:50;6.55;;;5.78;;
17773;SDS011;9011;33.236;-97.118;2022-12-07T08:56:21;7.53;;;6.25;;
17773;SDS011;9011;33.236;-97.118;2022-12-07T08:58:49;5.95;;;5.35;;
17773;SDS011;9011;33.236;-97.118;2022-12-07T09:01:18;5.32;;;4.88;;
17773;SDS011;9011;33.236;-97.118;2022-12-07T09:03:46;6.45;;;5.22;;
17773;SDS011;9011;33.236;-97.118;2022-12-07T09:06:15;5.35;;;4.85;;
17773;SDS011;9011;33.236;-97.118;2022-12-07T09:08:44;5.75;;;5.15;;
17773;SDS011;9011;33.236;-97.118;2022-12-07T09:11:15;5.60;;;4.65;;
17773;SDS011;9011;33.236;-97.118;2022-12-07T09:13:45;4.75;;;4.35;;
17773;SDS011;9011;33.236;-97.118;2022-12-07T09:16:13;6.93;;;5.25;;
17773;SDS011;9011;33.236;-97.118;2022-12-07T09:18:42;5.55;;;5.05;;
17773;SDS011;9011;33.236;-97.118;2022-12-07T09:21:11;5.32;;;4.70;;
17773;SDS011;9011;33.236;-97.118;2022-12-07T09:23:41;5.20;;;4.70;;
17773;SDS011;9011;33.236;-97.118;2022-12-07T09:26:10;5.88;;;5.38;;
17773;SDS011;9011;33.236;-97.118;2022-12-07T09:28:39;4.95;;;4.55;;
17773;SDS011;9011;33.236;-97.118;2022-12-07T09:31:13;5.38;;;4.88;;
17773;SDS011;9011;33.236;-97.118;2022-12-07T09:33:42;5.95;;;5.35;;
17773;SDS011;9011;33.236;-97.118;2022-12-07T09:36:10;6.45;;;5.85;;
17773;SDS011;9011;33.236;-97.118;2022-12-07T09:38:38;6.10;;;5.50;;
17773;SDS011;9011;33.236;-97.118;2022-12-07T09:41:07;5.63;;;5.00;;
17773;SDS011;9011;33.236;-97.118;2022-12-07T09:43:38;6.72;;;5.45;;
17773;SDS011;9011;33.236;-97.118;2022-12-07T09:46:08;7.70;;;5.63;;
17773;SDS011;9011;33.236;-97.118;2022-12-07T09:48:41;5.63;;;4.97;;
17773;SDS011;9011;33.236;-97.118;2022-12-07T09:51:13;6.00;;;5.30;;
17773;SDS011;9011;33.236;-97.118;2022-12-07T09:53:43;5.07;;;4.57;;
17773;SDS011;9011;33.236;-97.118;2022-12-07T09:56:12;5.80;;;5.13;;
17773;SDS011;9011;33.236;-97.118;2022-12-07T09:58:42;5.38;;;4.88;;
17773;SDS011;9011;33.236;-97.118;2022-12-07T10:01:13;5.78;;;5.18;;
17773;SDS011;9011;33.236;-97.118;2022-12-07T10:03:45;5.65;;;4.97;;
17773;SDS011;9011;33.236;-97.118;2022-12-07T10:06:18;5.38;;;4.85;;
17773;SDS011;9011;33.236;-97.118;2022-12-07T10:08:47;6.63;;;5.22;;
17773;SDS011;9011;33.236;-97.118;2022-12-07T10:11:15;6.03;;;4.82;;
17773;SDS011;9011;33.236;-97.118;2022-12-07T10:13:45;6.18;;;5.22;;
17773;SDS011;9011;33.236;-97.118;2022-12-07T10:16:37;5.72;;;5.15;;
17773;SDS011;9011;33.236;-97.118;2022-12-07T10:22:00;5.50;;;5.00;;
17773;SDS011;9011;33.236;-97.118;2022-12-07T10:24:36;5.80;;;4.75;;
17773;SDS011;9011;33.236;-97.118;2022-12-07T10:27:12;5.25;;;4.75;;
17773;SDS011;9011;33.236;-97.118;2022-12-07T10:29:47;6.45;;;4.80;;
17773;SDS011;9011;33.236;-97.118;2022-12-07T10:32:29;5.70;;;5.10;;
17773;SDS011;9011;33.236;-97.118;2022-12-07T10:35:19;4.70;;;4.20;;
17773;SDS011;9011;33.236;-97.118;2022-12-07T10:37:50;5.03;;;4.53;;
17773;SDS011;9011;33.236;-97.118;2022-12-07T10:40:27;5.88;;;5.28;;
17773;SDS011;9011;33.236;-97.118;2022-12-07T10:43:02;5.20;;;4.70;;
17773;SDS011;9011;33.236;-97.118;2022-12-07T10:45:32;5.38;;;4.80;;
17773;SDS011;9011;33.236;-97.118;2022-12-07T10:48:05;5.78;;;4.72;;
17773;SDS011;9011;33.236;-97.118;2022-12-07T10:50:43;5.40;;;4.90;;
17773;SDS011;9011;33.236;-97.118;2022-12-07T10:53:39;5.13;;;4.53;;
17773;SDS011;9011;33.236;-97.118;2022-12-07T10:56:23;5.88;;;4.70;;
17773;SDS011;9011;33.236;-97.118;2022-12-07T10:59:03;5.78;;;5.18;;
17773;SDS011;9011;33.236;-97.118;2022-12-07T11:01:49;5.28;;;4.72;;
17773;SDS011;9011;33.236;-97.118;2022-12-07T11:11:23;5.53;;;4.20;;
17773;SDS011;9011;33.236;-97.118;2022-12-07T11:14:03;7.72;;;5.15;;
17773;SDS011;9011;33.236;-97.118;2022-12-07T11:16:46;5.28;;;4.78;;
17773;SDS011;9011;33.236;-97.118;2022-12-07T11:22:26;5.35;;;4.85;;
17773;SDS011;9011;33.236;-97.118;2022-12-07T11:25:14;5.78;;;4.65;;
17773;SDS011;9011;33.236;-97.118;2022-12-07T11:27:55;5.28;;;4.65;;
17773;SDS011;9011;33.236;-97.118;2022-12-07T11:30:42;5.13;;;4.63;;
17773;SDS011;9011;33.236;-97.118;2022-12-07T11:33:17;5.13;;;4.63;;
17773;SDS011;9011;33.236;-97.118;2022-12-07T11:35:55;5.43;;;4.93;;
17773;SDS011;9011;33.236;-97.118;2022-12-07T11:38:33;5.13;;;4.60;;
17773;SDS011;9011;33.236;-97.118;2022-12-07T11:41:11;5.80;;;5.13;;
17773;SDS011;9011;33.236;-97.118;2022-12-07T11:43:49;6.53;;;4.72;;
17773;SDS011;9011;33.236;-97.118;2022-12-07T11:46:24;5.35;;;4.78;;
17773;SDS011;9011;33.236;-97.118;2022-12-07T11:48:58;7.28;;;4.95;;
17773;SDS011;9011;33.236;-97.118;2022-12-07T11:51:35;6.22;;;5.43;;
17773;SDS011;9011;33.236;-97.118;2022-12-07T11:54:10;6.03;;;5.13;;
17773;SDS011;9011;33.236;-97.118;2022-12-07T11:56:45;5.50;;;5.00;;
17773;SDS011;9011;33.236;-97.118;2022-12-07T11:59:19;6.18;;;5.38;;
17773;SDS011;9011;33.236;-97.118;2022-12-07T12:01:56;5.35;;;4.85;;
17773;SDS011;9011;33.236;-97.118;2022-12-07T12:04:30;5.65;;;5.10;;
17773;SDS011;9011;33.236;-97.118;2022-12-07T12:07:05;5.53;;;4.82;;
17773;SDS011;9011;33.236;-97.118;2022-12-07T12:09:40;5.55;;;5.00;;
17773;SDS011;9011;33.236;-97.118;2022-12-07T12:12:21;6.05;;;5.22;;
17773;SDS011;9011;33.236;-97.118;2022-12-07T12:15:04;6.00;;;5.03;;
17773;SDS011;9011;33.236;-97.118;2022-12-07T12:20:46;6.97;;;4.97;;
17773;SDS011;9011;33.236;-97.118;2022-12-07T12:23:19;6.30;;;5.35;;
17773;SDS011;9011;33.236;-97.118;2022-12-07T12:25:50;6.70;;;5.55;;
17773;SDS011;9011;33.236;-97.118;2022-12-07T12:28:27;5.57;;;4.90;;
17773;SDS011;9011;33.236;-97.118;2022-12-07T12:31:07;5.65;;;4.72;;
17773;SDS011;9011;33.236;-97.118;2022-12-07T12:33:42;6.07;;;5.13;;
17773;SDS011;9011;33.236;-97.118;2022-12-07T12:36:19;5.63;;;4.97;;
17773;SDS011;9011;33.236;-97.118;2022-12-07T12:38:51;5.75;;;4.82;;
17773;SDS011;9011;33.236;-97.118;2022-12-07T12:41:54;5.97;;;5.38;;
17773;SDS011;9011;33.236;-97.118;2022-12-07T12:44:41;5.30;;;4.75;;
17773;SDS011;9011;33.236;-97.118;2022-12-07T12:47:41;5.70;;;4.80;;
17773;SDS011;9011;33.236;-97.118;2022-12-07T12:50:21;5.63;;;4.80;;
17773;SDS011;9011;33.236;-97.118;2022-12-07T12:53:02;8.07;;;5.57;;
17773;SDS011;9011;33.236;-97.118;2022-12-07T12:58:37;7.57;;;5.22;;
17773;SDS011;9011;33.236;-97.118;2022-12-07T13:04:21;8.40;;;5.68;;
17773;SDS011;9011;33.236;-97.118;2022-12-07T13:10:36;6.38;;;5.35;;
17773;SDS011;9011;33.236;-97.118;2022-12-07T13:13:29;7.95;;;5.72;;
17773;SDS011;9011;33.236;-97.118;2022-12-07T13:22:44;9.98;;;6.75;;
17773;SDS011;9011;33.236;-97.118;2022-12-07T13:25:21;8.50;;;6.15;;
17773;SDS011;9011;33.236;-97.118;2022-12-07T13:27:59;9.07;;;5.97;;
17773;SDS011;9011;33.236;-97.118;2022-12-07T13:30:30;16.58;;;7.45;;
17773;SDS011;9011;33.236;-97.118;2022-12-07T13:32:59;13.98;;;6.57;;
17773;SDS011;9011;33.236;-97.118;2022-12-07T13:35:28;13.70;;;7.65;;
17773;SDS011;9011;33.236;-97.118;2022-12-07T13:38:00;13.52;;;6.43;;
17773;SDS011;9011;33.236;-97.118;2022-12-07T13:40:31;12.38;;;7.03;;
17773;SDS011;9011;33.236;-97.118;2022-12-07T13:43:01;11.70;;;7.00;;
17773;SDS011;9011;33.236;-97.118;2022-12-07T13:45:32;11.15;;;6.53;;
17773;SDS011;9011;33.236;-97.118;2022-12-07T13:48:18;11.13;;;6.40;;
17773;SDS011;9011;33.236;-97.118;2022-12-07T13:50:54;8.95;;;6.22;;
17773;SDS011;9011;33.236;-97.118;2022-12-07T13:53:25;12.27;;;7.22;;
17773;SDS011;9011;33.236;-97.118;2022-12-07T13:55:56;13.15;;;6.50;;
17773;SDS011;9011;33.236;-97.118;2022-12-07T13:58:24;11.30;;;6.85;;
17773;SDS011;9011;33.236;-97.118;2022-12-07T14:00:54;13.15;;;6.72;;
17773;SDS011;9011;33.236;-97.118;2022-12-07T14:03:29;11.10;;;6.60;;
17773;SDS011;9011;33.236;-97.118;2022-12-07T14:06:07;10.60;;;6.60;;
17773;SDS011;9011;33.236;-97.118;2022-12-07T14:08:48;12.05;;;6.88;;
17773;SDS011;9011;33.236;-97.118;2022-12-07T14:11:17;10.40;;;6.65;;
17773;SDS011;9011;33.236;-97.118;2022-12-07T14:13:52;11.82;;;6.68;;
17773;SDS011;9011;33.236;-97.118;2022-12-07T14:16:26;15.10;;;7.63;;
17773;SDS011;9011;33.236;-97.118;2022-12-07T14:18:56;16.75;;;8.00;;
17773;SDS011;9011;33.236;-97.118;2022-12-07T14:21:26;14.77;;;7.72;;
17773;SDS011;9011;33.236;-97.118;2022-12-07T14:24:09;11.85;;;7.68;;
17773;SDS011;9011;33.236;-97.118;2022-12-07T14:26:42;12.70;;;7.63;;
17773;SDS011;9011;33.236;-97.118;2022-12-07T14:29:29;11.30;;;7.35;;
17773;SDS011;9011;33.236;-97.118;2022-12-07T14:32:13;14.32;;;8.32;;
17773;SDS011;9011;33.236;-97.118;2022-12-07T14:34:54;14.75;;;7.93;;
17773;SDS011;9011;33.236;-97.118;2022-12-07T14:37:24;17.40;;;8.43;;
17773;SDS011;9011;33.236;-97.118;2022-12-07T14:39:55;18.63;;;7.22;;
17773;SDS011;9011;33.236;-97.118;2022-12-07T14:42:26;14.82;;;7.82;;
17773;SDS011;9011;33.236;-97.118;2022-12-07T14:44:57;13.70;;;7.97;;
17773;SDS011;9011;33.236;-97.118;2022-12-07T14:47:25;15.88;;;8.55;;
17773;SDS011;9011;33.236;-97.118;2022-12-07T14:49:54;18.10;;;8.48;;
17773;SDS011;9011;33.236;-97.118;2022-12-07T14:52:23;15.40;;;7.97;;
17773;SDS011;9011;33.236;-97.118;2022-12-07T14:54:57;18.08;;;8.55;;
17773;SDS011;9011;33.236;-97.118;2022-12-07T14:57:25;20.52;;;9.38;;
17773;SDS011;9011;33.236;-97.118;2022-12-07T14:59:54;20.60;;;8.95;;
17773;SDS011;9011;33.236;-97.118;2022-12-07T15:02:22;15.05;;;7.85;;
17773;SDS011;9011;33.236;-97.118;2022-12-07T15:04:50;17.52;;;8.55;;
17773;SDS011;9011;33.236;-97.118;2022-12-07T15:07:19;15.93;;;8.55;;
17773;SDS011;9011;33.236;-97.118;2022-12-07T15:09:49;15.38;;;8.02;;
17773;SDS011;9011;33.236;-97.118;2022-12-07T15:12:19;17.63;;;8.57;;
17773;SDS011;9011;33.236;-97.118;2022-12-07T15:14:47;22.13;;;8.95;;
17773;SDS011;9011;33.236;-97.118;2022-12-07T15:17:15;16.20;;;8.68;;
17773;SDS011;9011;33.236;-97.118;2022-12-07T15:19:43;19.17;;;8.95;;
17773;SDS011;9011;33.236;-97.118;2022-12-07T15:22:12;18.80;;;8.88;;
17773;SDS011;9011;33.236;-97.118;2022-12-07T15:24:40;22.23;;;9.25;;
17773;SDS011;9011;33.236;-97.118;2022-12-07T15:27:09;22.00;;;9.68;;
17773;SDS011;9011;33.236;-97.118;2022-12-07T15:29:38;21.45;;;9.82;;
17773;SDS011;9011;33.236;-97.118;2022-12-07T15:32:07;21.02;;;10.20;;
17773;SDS011;9011;33.236;-97.118;2022-12-07T15:34:35;19.10;;;9.50;;
17773;SDS011;9011;33.236;-97.118;2022-12-07T15:37:03;26.00;;;10.90;;
17773;SDS011;9011;33.236;-97.118;2022-12-07T15:39:32;23.35;;;10.65;;
17773;SDS011;9011;33.236;-97.118;2022-12-07T15:42:01;20.40;;;10.82;;